Bda Lluberas, Puerto Rico
Current Conditions -  °F | °C
As of 6:50 PM on Wednesday 17 Dec 2014 (Local Time) from TJBQ Reporting Station
Broken Clouds Broken Clouds  
Wind Chill: 75°   Ceiling: 3500
Heat Index: 75°   Visibility: 10mi
Dew Point: 66°   Wind: 12mph
Humidity: 73%   Direction: 60°ENE
Pressure: 30.04"   Gusts: NA
Location:  18.0306°N, 66.8507°W
Report Text: TJBQ 172250Z 06010KT 10SM SCT029 BKN035 24/19 A3004 RMK RWY08 ATIS J
Loading
Personal Weather Stations






























Interactive Weather Map New forecast layout! Learn more

10-Day Weather Forecast

Advertisements
Track Severe Weather on mobile